createdAt,value
2022-11-25T00:01:34.076Z,17.10
2022-11-25T00:04:02.864Z,18.20
2022-11-25T00:06:33.769Z,16.50
2022-11-25T00:09:01.865Z,18.70
2022-11-25T00:11:30.071Z,21.90
2022-11-25T00:13:58.601Z,25.10
2022-11-25T00:16:26.865Z,21.70
2022-11-25T00:18:56.555Z,22.40
2022-11-25T00:21:27.478Z,24.00
2022-11-25T00:24:00.874Z,18.20
2022-11-25T00:26:31.307Z,19.40
2022-11-25T00:29:01.940Z,16.50
2022-11-25T00:31:32.959Z,16.10
2022-11-25T00:34:01.399Z,14.40
2022-11-25T00:36:32.329Z,15.50
2022-11-25T00:39:24.561Z,14.70
2022-11-25T00:42:11.186Z,13.90
2022-11-25T00:44:40.906Z,19.60
2022-11-25T00:47:13.128Z,15.70
2022-11-25T00:49:49.005Z,18.50
2022-11-25T00:52:19.683Z,13.50
2022-11-25T00:54:50.158Z,14.90
2022-11-25T00:57:20.324Z,14.30
2022-11-25T00:59:49.091Z,16.40
2022-11-25T01:02:19.117Z,12.40
2022-11-25T01:04:47.708Z,10.40
2022-11-25T01:07:18.145Z,10.10
2022-11-25T01:09:46.248Z,10.00
2022-11-25T01:12:14.262Z,10.70
2022-11-25T01:14:42.220Z,8.30
2022-11-25T01:17:10.347Z,10.50
2022-11-25T01:19:40.586Z,9.00
2022-11-25T01:22:09.661Z,8.60
2022-11-25T01:24:38.030Z,11.70
2022-11-25T01:27:06.655Z,8.40
2022-11-25T01:29:34.770Z,10.00
2022-11-25T01:32:02.844Z,10.00
2022-11-25T01:34:32.668Z,8.60
2022-11-25T01:37:00.778Z,10.10
2022-11-25T01:39:32.904Z,9.10
2022-11-25T01:42:02.378Z,11.10
2022-11-25T01:44:32.520Z,9.80
2022-11-25T01:47:12.949Z,10.10
2022-11-25T01:49:48.832Z,9.30
2022-11-25T01:52:31.867Z,11.00
2022-11-25T01:55:29.941Z,10.90
2022-11-25T01:58:08.965Z,11.60
2022-11-25T02:00:38.262Z,10.40
2022-11-25T02:03:07.857Z,9.50
2022-11-25T02:06:03.134Z,10.70
2022-11-25T02:08:33.770Z,13.10
2022-11-25T02:11:04.687Z,11.80
2022-11-25T02:13:33.751Z,13.60
2022-11-25T02:16:01.798Z,13.50
2022-11-25T02:18:30.506Z,13.70
2022-11-25T02:20:58.623Z,11.20
2022-11-25T02:23:41.867Z,11.30
2022-11-25T02:26:10.872Z,11.40
2022-11-25T02:28:39.765Z,9.60
2022-11-25T02:31:08.440Z,10.50
2022-11-25T02:33:37.044Z,11.30
2022-11-25T02:36:07.322Z,12.20
2022-11-25T02:38:39.546Z,11.10
2022-11-25T02:41:17.834Z,12.30
2022-11-25T02:43:48.643Z,11.50
2022-11-25T02:46:22.493Z,10.50
2022-11-25T02:49:09.961Z,10.90
2022-11-25T02:51:41.935Z,12.10
2022-11-25T02:54:12.211Z,10.90
2022-11-25T02:56:40.747Z,12.00
2022-11-25T02:59:10.597Z,11.20
2022-11-25T03:01:39.517Z,11.80
2022-11-25T03:04:08.849Z,12.30
2022-11-25T03:06:37.198Z,11.20
2022-11-25T03:09:05.457Z,12.50
2022-11-25T03:11:52.260Z,10.90
2022-11-25T03:14:21.586Z,11.70
2022-11-25T03:16:50.074Z,12.40
2022-11-25T03:19:18.105Z,10.10
2022-11-25T03:21:46.078Z,12.10
2022-11-25T03:24:14.097Z,11.60
2022-11-25T03:26:42.126Z,11.90
2022-11-25T03:29:10.118Z,10.50
2022-11-25T03:31:38.832Z,11.20
2022-11-25T03:34:09.889Z,12.80
2022-11-25T03:36:38.260Z,11.40
2022-11-25T03:39:07.101Z,11.90
2022-11-25T03:41:35.875Z,11.70
2022-11-25T03:44:04.036Z,10.40
2022-11-25T03:46:32.140Z,13.90
2022-11-25T03:49:00.500Z,13.40
2022-11-25T03:51:29.151Z,14.70
2022-11-25T03:53:57.411Z,12.00
2022-11-25T03:56:25.640Z,11.10
2022-11-25T03:58:53.762Z,10.90
2022-11-25T04:01:23.534Z,13.00
2022-11-25T04:03:51.869Z,11.00
2022-11-25T04:06:21.893Z,11.60
2022-11-25T04:08:50.966Z,10.10
2022-11-25T04:11:19.293Z,13.50
2022-11-25T04:13:48.891Z,12.50
2022-11-25T04:16:22.674Z,11.50
2022-11-25T04:18:51.299Z,14.90
2022-11-25T04:21:19.574Z,13.70
2022-11-25T04:23:47.815Z,11.30
2022-11-25T04:26:16.225Z,12.80
2022-11-25T04:28:46.073Z,12.20
2022-11-25T04:31:14.858Z,12.90
2022-11-25T04:33:48.380Z,10.00
2022-11-25T04:36:19.860Z,10.20
2022-11-25T04:38:48.542Z,12.20
2022-11-25T04:41:16.701Z,12.40
2022-11-25T04:43:45.285Z,11.90
2022-11-25T04:46:23.753Z,12.20
2022-11-25T04:48:52.089Z,12.30
2022-11-25T04:51:20.708Z,13.10
2022-11-25T04:53:51.399Z,11.10
2022-11-25T04:56:20.846Z,10.60
2022-11-25T04:59:09.421Z,13.20
2022-11-25T05:01:41.011Z,10.50
2022-11-25T05:04:32.590Z,10.00
2022-11-25T05:07:01.240Z,11.40
2022-11-25T05:09:29.507Z,10.50
2022-11-25T05:12:06.152Z,12.60
2022-11-25T05:14:36.127Z,11.30
2022-11-25T05:17:05.427Z,12.90
2022-11-25T05:19:36.583Z,19.40
2022-11-25T05:22:04.642Z,33.30
2022-11-25T05:24:34.046Z,22.90
2022-11-25T05:27:02.497Z,22.70
2022-11-25T05:29:32.343Z,15.80
2022-11-25T05:32:00.821Z,16.50
2022-11-25T05:34:30.106Z,15.20
2022-11-25T05:36:58.688Z,12.10
2022-11-25T05:39:26.996Z,11.50
2022-11-25T05:42:23.013Z,11.20
2022-11-25T05:44:51.126Z,9.40
2022-11-25T05:47:19.171Z,8.60
2022-11-25T05:49:48.790Z,10.20
2022-11-25T05:52:16.869Z,9.90
2022-11-25T05:54:55.714Z,10.90
2022-11-25T05:57:25.652Z,10.60
2022-11-25T06:00:01.572Z,10.10
2022-11-25T06:02:43.142Z,11.40
2022-11-25T06:05:13.746Z,12.90
2022-11-25T06:07:41.871Z,12.80
2022-11-25T06:10:10.539Z,15.00
2022-11-25T06:12:40.215Z,11.10
2022-11-25T06:15:09.184Z,12.60
2022-11-25T06:17:38.116Z,13.00
2022-11-25T06:20:13.749Z,10.50
2022-11-25T06:22:41.856Z,13.30
2022-11-25T06:25:11.296Z,11.40
2022-11-25T06:28:04.968Z,11.60
2022-11-25T06:30:27.932Z,10.40
2022-11-25T06:33:15.840Z,12.20
2022-11-25T06:35:45.769Z,11.80
2022-11-25T06:38:13.980Z,13.60
2022-11-25T06:40:42.103Z,12.20
2022-11-25T06:43:10.170Z,14.70
2022-11-25T06:45:38.289Z,10.30
2022-11-25T06:48:06.716Z,11.60
2022-11-25T06:50:34.978Z,12.10
2022-11-25T06:53:03.276Z,12.80
2022-11-25T06:55:31.413Z,14.70
2022-11-25T06:58:20.660Z,13.70
2022-11-25T07:00:47.755Z,15.60
2022-11-25T07:03:16.012Z,18.60
2022-11-25T07:05:44.360Z,18.60
2022-11-25T07:08:12.851Z,13.30
2022-11-25T07:10:41.104Z,14.80
2022-11-25T07:13:09.736Z,14.70
2022-11-25T07:15:38.625Z,11.70
2022-11-25T07:18:07.010Z,14.40
2022-11-25T07:20:35.282Z,12.80
2022-11-25T07:23:03.327Z,14.20
2022-11-25T07:25:33.177Z,12.20
2022-11-25T07:28:01.441Z,12.40
2022-11-25T07:31:21.707Z,10.20
2022-11-25T07:33:18.452Z,13.20
2022-11-25T07:35:46.766Z,15.00
2022-11-25T07:38:18.351Z,17.00
2022-11-25T07:40:47.342Z,17.00
2022-11-25T07:43:15.513Z,22.10
2022-11-25T07:45:44.793Z,18.80
2022-11-25T07:48:13.643Z,16.10
2022-11-25T07:50:42.064Z,17.50
2022-11-25T07:53:10.614Z,17.10
2022-11-25T07:55:39.356Z,15.50
2022-11-25T07:58:07.904Z,18.50
2022-11-25T08:00:36.425Z,14.60
2022-11-25T08:03:04.797Z,18.50
2022-11-25T08:05:34.214Z,19.70
2022-11-25T08:08:02.973Z,17.70
2022-11-25T08:10:35.656Z,19.20
2022-11-25T08:13:04.334Z,16.90
2022-11-25T08:15:33.300Z,14.20
2022-11-25T08:18:01.595Z,14.80
2022-11-25T08:20:31.605Z,20.70
2022-11-25T08:23:00.055Z,13.30
2022-11-25T08:25:29.899Z,14.90
2022-11-25T08:28:01.615Z,12.20
2022-11-25T08:30:30.052Z,9.70
2022-11-25T08:32:59.208Z,11.30
2022-11-25T08:35:27.813Z,12.20
2022-11-25T08:37:56.818Z,11.60
2022-11-25T08:40:24.990Z,10.30
2022-11-25T08:42:53.571Z,10.60
2022-11-25T08:45:22.154Z,8.70
2022-11-25T08:47:50.550Z,10.30
2022-11-25T08:50:18.688Z,10.80
2022-11-25T08:52:47.023Z,13.60
2022-11-25T08:55:15.311Z,13.50
2022-11-25T08:57:43.780Z,9.50
2022-11-25T09:00:12.525Z,7.10
2022-11-25T09:02:40.889Z,8.00
2022-11-25T09:05:12.847Z,7.00
2022-11-25T09:07:41.384Z,7.40
2022-11-25T09:10:14.761Z,11.40
2022-11-25T09:12:43.172Z,8.90
2022-11-25T09:15:12.324Z,10.20
2022-11-25T09:17:40.599Z,9.90
2022-11-25T09:20:09.345Z,7.70
2022-11-25T09:22:38.077Z,7.90
2022-11-25T09:25:07.392Z,8.50
2022-11-25T09:27:36.165Z,7.90
2022-11-25T09:30:05.246Z,9.10
2022-11-25T09:32:33.975Z,7.60
2022-11-25T09:35:02.459Z,8.00
2022-11-25T09:37:30.944Z,9.00
2022-11-25T09:39:59.512Z,9.20
2022-11-25T09:42:51.969Z,10.60
2022-11-25T09:45:45.117Z,16.50
2022-11-25T09:48:31.362Z,12.40
2022-11-25T09:51:02.790Z,8.80
2022-11-25T09:53:52.421Z,10.30
2022-11-25T09:56:30.272Z,9.10
2022-11-25T09:59:07.204Z,12.00
2022-11-25T10:01:46.141Z,10.90
2022-11-25T10:04:22.443Z,9.70
2022-11-25T10:06:57.229Z,9.10
2022-11-25T10:09:31.992Z,9.90
2022-11-25T10:12:18.497Z,8.50
2022-11-25T10:14:50.377Z,6.10
2022-11-25T10:17:28.576Z,12.90
2022-11-25T10:20:13.501Z,11.60
2022-11-25T10:22:48.386Z,11.50
2022-11-25T10:25:30.523Z,12.00
2022-11-25T10:28:17.660Z,10.50
2022-11-25T10:30:55.773Z,12.40
2022-11-25T10:33:40.049Z,10.70
2022-11-25T10:36:18.408Z,10.60
2022-11-25T10:38:49.727Z,10.40
2022-11-25T10:41:22.458Z,10.50
2022-11-25T10:43:51.173Z,9.80
2022-11-25T10:47:12.344Z,11.10
2022-11-25T10:49:41.299Z,11.40
2022-11-25T10:52:14.485Z,10.90
2022-11-25T10:54:56.629Z,8.60
2022-11-25T10:57:29.956Z,6.90
2022-11-25T11:00:00.823Z,9.50
2022-11-25T11:02:37.950Z,9.50
2022-11-25T11:05:09.854Z,8.70
2022-11-25T11:07:40.950Z,9.00
2022-11-25T11:10:15.863Z,9.00
2022-11-25T11:13:05.930Z,12.10
2022-11-25T11:15:49.762Z,7.70
2022-11-25T11:18:21.180Z,6.00
2022-11-25T11:20:52.625Z,23.50
2022-11-25T11:23:22.037Z,11.20
2022-11-25T11:26:02.014Z,5.20
2022-11-25T11:28:41.776Z,5.50
2022-11-25T11:31:20.710Z,17.40
2022-11-25T11:33:49.086Z,12.30
2022-11-25T11:36:42.193Z,8.70
2022-11-25T11:39:25.625Z,7.70
2022-11-25T11:42:19.175Z,8.40
2022-11-25T11:44:53.251Z,7.60
2022-11-25T11:47:59.788Z,7.90
2022-11-25T11:50:27.964Z,5.20
2022-11-25T11:53:16.980Z,6.50
2022-11-25T11:56:36.591Z,7.80
2022-11-25T11:59:04.728Z,10.60
2022-11-25T12:01:44.936Z,3.80
2022-11-25T12:04:20.152Z,7.50
2022-11-25T12:07:02.632Z,7.20
2022-11-25T12:09:36.602Z,6.90
2022-11-25T12:12:09.970Z,7.00
2022-11-25T12:14:50.316Z,11.40
2022-11-25T12:17:25.599Z,7.60
2022-11-25T12:20:24.490Z,9.40
2022-11-25T12:23:02.664Z,18.10
2022-11-25T12:25:38.039Z,12.70
2022-11-25T12:28:30.684Z,7.10
2022-11-25T12:31:23.649Z,10.30
2022-11-25T12:33:56.940Z,14.90
2022-11-25T12:36:39.520Z,7.50
2022-11-25T12:39:41.728Z,6.10
2022-11-25T12:42:25.661Z,10.00
2022-11-25T12:45:16.231Z,7.60
2022-11-25T12:47:45.580Z,9.70
2022-11-25T12:50:27.118Z,9.70
2022-11-25T12:53:01.592Z,8.60
2022-11-25T12:55:35.136Z,7.50
2022-11-25T12:58:36.592Z,7.50
2022-11-25T13:01:11.009Z,8.50
2022-11-25T13:03:59.404Z,11.60
2022-11-25T13:06:46.723Z,9.50
2022-11-25T13:09:34.001Z,28.40
2022-11-25T13:12:21.167Z,13.00
2022-11-25T13:15:05.640Z,10.10
2022-11-25T13:17:40.258Z,7.50
2022-11-25T13:20:44.423Z,11.80
2022-11-25T13:23:13.630Z,9.60
2022-11-25T13:25:45.237Z,8.80
2022-11-25T13:28:36.827Z,13.40
2022-11-25T13:31:16.482Z,11.30
2022-11-25T13:33:44.989Z,11.00
2022-11-25T13:36:19.702Z,10.50
2022-11-25T13:38:52.081Z,14.50
2022-11-25T13:41:23.023Z,8.80
2022-11-25T13:44:04.820Z,9.60
2022-11-25T13:46:33.061Z,8.90
2022-11-25T13:49:02.313Z,8.80
2022-11-25T13:51:31.060Z,8.50
2022-11-25T13:54:06.788Z,11.90
2022-11-25T13:56:37.302Z,8.70
2022-11-25T13:59:11.821Z,20.80
2022-11-25T14:01:47.050Z,9.00
2022-11-25T14:04:16.603Z,9.10
2022-11-25T14:07:20.085Z,10.90
2022-11-25T14:10:07.829Z,9.00
2022-11-25T14:12:57.509Z,8.80
2022-11-25T14:15:47.812Z,8.30
2022-11-25T14:21:42.177Z,8.70
2022-11-25T14:24:25.745Z,9.60
2022-11-25T14:26:55.566Z,9.00
2022-11-25T14:29:30.632Z,9.30
2022-11-25T14:32:24.455Z,20.00
2022-11-25T14:35:02.365Z,8.80
2022-11-25T14:37:41.923Z,12.30
2022-11-25T14:40:20.550Z,11.70
2022-11-25T14:42:53.100Z,14.30
2022-11-25T14:45:30.174Z,9.40
2022-11-25T14:47:58.733Z,11.00
2022-11-25T14:50:34.725Z,9.50
2022-11-25T14:53:09.690Z,11.30
2022-11-25T14:55:38.382Z,13.30
2022-11-25T14:58:06.592Z,9.20
2022-11-25T15:00:35.892Z,7.90
2022-11-25T15:03:06.874Z,9.40
2022-11-25T15:05:41.387Z,8.90
2022-11-25T15:08:16.231Z,11.50
2022-11-25T15:10:44.940Z,10.40
2022-11-25T15:13:32.465Z,13.30
2022-11-25T15:16:06.596Z,12.30
2022-11-25T15:18:35.942Z,15.20
2022-11-25T15:21:04.665Z,14.70
2022-11-25T15:23:37.522Z,12.80
2022-11-25T15:26:17.100Z,12.20
2022-11-25T15:28:46.262Z,14.40
2022-11-25T15:31:20.972Z,11.50
2022-11-25T15:33:57.067Z,10.60
2022-11-25T15:36:27.016Z,12.20
2022-11-25T15:38:55.745Z,14.10
2022-11-25T15:41:36.421Z,11.70
2022-11-25T15:44:06.657Z,9.80
2022-11-25T15:46:36.109Z,11.50
2022-11-25T15:49:16.512Z,11.80
2022-11-25T15:51:56.747Z,13.90
2022-11-25T15:54:49.140Z,18.90
2022-11-25T15:57:30.273Z,11.50
2022-11-25T15:59:58.782Z,9.20
2022-11-25T16:02:38.656Z,12.70
2022-11-25T16:05:16.191Z,11.10
2022-11-25T16:07:50.560Z,7.70
2022-11-25T16:10:24.118Z,11.00
2022-11-25T16:13:21.732Z,11.90
2022-11-25T16:16:21.965Z,12.40
2022-11-25T16:18:53.695Z,17.50
2022-11-25T16:21:28.152Z,19.10
2022-11-25T16:27:01.093Z,19.30
2022-11-25T16:29:48.913Z,12.90
2022-11-25T16:32:22.472Z,17.90
2022-11-25T16:34:51.801Z,15.10
2022-11-25T16:37:20.517Z,18.80
2022-11-25T16:39:48.762Z,19.20
2022-11-25T16:42:20.727Z,20.30
2022-11-25T16:44:51.751Z,19.60
2022-11-25T16:47:21.966Z,21.30
2022-11-25T16:49:50.424Z,21.90
2022-11-25T16:52:18.584Z,21.50
2022-11-25T16:54:47.752Z,25.20
2022-11-25T16:57:22.086Z,22.10
2022-11-25T16:59:55.957Z,23.80
2022-11-25T17:02:27.189Z,19.50
2022-11-25T17:04:58.609Z,23.90
2022-11-25T17:07:34.686Z,23.50
2022-11-25T17:10:04.565Z,26.10
2022-11-25T17:12:35.432Z,22.90
2022-11-25T17:15:06.637Z,24.60
2022-11-25T17:17:35.518Z,23.70
2022-11-25T17:20:04.857Z,24.80
2022-11-25T17:22:39.016Z,31.20
2022-11-25T17:25:10.310Z,31.80
2022-11-25T17:27:39.964Z,37.20
2022-11-25T17:30:18.217Z,42.90
2022-11-25T17:32:47.977Z,44.80
2022-11-25T17:35:19.182Z,43.00
2022-11-25T17:37:47.883Z,49.40
2022-11-25T17:40:16.524Z,31.70
2022-11-25T17:42:46.323Z,39.00
2022-11-25T17:45:17.466Z,41.80
2022-11-25T17:47:46.699Z,41.30
2022-11-25T17:50:24.161Z,35.60
2022-11-25T17:52:53.005Z,32.00
2022-11-25T17:55:23.020Z,37.30
2022-11-25T17:57:51.230Z,48.40
2022-11-25T18:00:21.838Z,46.70
2022-11-25T18:02:50.395Z,49.40
2022-11-25T18:05:22.496Z,44.40
2022-11-25T18:07:51.275Z,51.40
2022-11-25T18:10:24.794Z,45.00
2022-11-25T18:12:55.653Z,52.00
2022-11-25T18:15:27.104Z,53.20
2022-11-25T18:18:02.190Z,32.20
2022-11-25T18:20:32.954Z,27.30
2022-11-25T18:23:01.400Z,27.70
2022-11-25T18:25:32.097Z,27.80
2022-11-25T18:28:01.287Z,23.70
2022-11-25T18:30:31.629Z,22.90
2022-11-25T18:33:01.795Z,23.60
2022-11-25T18:35:36.023Z,26.60
2022-11-25T18:38:06.530Z,23.90
2022-11-25T18:40:40.484Z,21.70
2022-11-25T18:43:17.298Z,27.00
2022-11-25T18:45:46.098Z,24.90
2022-11-25T18:48:17.435Z,24.80
2022-11-25T18:50:47.187Z,25.00
2022-11-25T18:53:15.567Z,25.60
2022-11-25T18:55:44.428Z,26.20
2022-11-25T18:58:19.220Z,33.50
2022-11-25T19:00:49.498Z,28.40
2022-11-25T19:03:36.185Z,28.40
2022-11-25T19:06:04.897Z,30.10
2022-11-25T19:08:33.278Z,31.60
2022-11-25T19:11:01.607Z,32.40
2022-11-25T19:13:35.185Z,32.40
2022-11-25T19:16:13.114Z,30.60
2022-11-25T19:18:44.172Z,35.40
2022-11-25T19:21:17.331Z,29.10
2022-11-25T19:23:46.458Z,30.20
2022-11-25T19:26:19.248Z,31.10
2022-11-25T19:28:50.490Z,33.70
2022-11-25T19:31:19.895Z,32.10
2022-11-25T19:33:50.991Z,33.90
2022-11-25T19:36:27.082Z,32.00
2022-11-25T19:38:55.322Z,38.10
2022-11-25T19:41:24.186Z,40.90
2022-11-25T19:43:53.003Z,40.10
2022-11-25T19:46:46.206Z,39.80
2022-11-25T19:49:20.252Z,41.90
2022-11-25T19:51:49.357Z,37.20
2022-11-25T19:54:19.363Z,38.30
2022-11-25T19:56:47.785Z,38.80
2022-11-25T19:59:15.978Z,41.60
2022-11-25T20:01:46.580Z,37.50
2022-11-25T20:04:22.555Z,37.30
2022-11-25T20:06:51.762Z,32.20
2022-11-25T20:09:20.091Z,37.20
2022-11-25T20:11:49.227Z,37.60
2022-11-25T20:14:18.165Z,37.20
2022-11-25T20:16:46.589Z,43.50
2022-11-25T20:19:18.297Z,37.70
2022-11-25T20:21:47.660Z,33.80
2022-11-25T20:24:19.973Z,34.40
2022-11-25T20:26:49.109Z,35.00
2022-11-25T20:29:24.527Z,38.90
2022-11-25T20:31:56.355Z,35.00
2022-11-25T20:34:25.067Z,40.50
2022-11-25T20:36:53.346Z,39.00
2022-11-25T20:39:21.836Z,36.80
2022-11-25T20:41:51.433Z,38.50
2022-11-25T20:44:20.519Z,33.60
2022-11-25T20:46:48.700Z,41.40
2022-11-25T20:49:29.394Z,32.20
2022-11-25T20:51:57.986Z,38.40
2022-11-25T20:54:26.076Z,32.90
2022-11-25T20:56:57.358Z,34.40
2022-11-25T20:59:25.629Z,38.10
2022-11-25T21:01:54.912Z,35.40
2022-11-25T21:04:23.575Z,32.50
2022-11-25T21:06:51.807Z,37.00
2022-11-25T21:09:24.690Z,36.70
2022-11-25T21:11:53.177Z,37.60
2022-11-25T21:14:21.386Z,36.40
2022-11-25T21:16:49.662Z,35.50
2022-11-25T21:19:18.240Z,34.60
2022-11-25T21:21:49.729Z,35.50
2022-11-25T21:24:50.098Z,33.90
2022-11-25T21:27:20.123Z,38.00
2022-11-25T21:29:48.526Z,32.80
2022-11-25T21:32:22.528Z,30.30
2022-11-25T21:34:51.445Z,28.20
2022-11-25T21:37:32.602Z,25.50
2022-11-25T21:40:01.157Z,27.60
2022-11-25T21:42:31.604Z,27.80
2022-11-25T21:44:59.613Z,30.20
2022-11-25T21:47:29.638Z,30.20
2022-11-25T21:49:58.392Z,34.30
2022-11-25T21:52:26.631Z,31.00
2022-11-25T21:54:54.891Z,28.80
2022-11-25T21:57:28.023Z,33.00
2022-11-25T21:59:56.268Z,33.10
2022-11-25T22:02:25.221Z,31.50
2022-11-25T22:04:53.500Z,36.50
2022-11-25T22:07:25.065Z,33.50
2022-11-25T22:09:55.877Z,35.10
2022-11-25T22:12:28.917Z,38.20
2022-11-25T22:14:59.147Z,33.90
2022-11-25T22:17:27.986Z,30.70
2022-11-25T22:19:57.204Z,30.00
2022-11-25T22:22:25.226Z,25.90
2022-11-25T22:24:53.383Z,29.70
2022-11-25T22:27:24.988Z,26.50
2022-11-25T22:29:54.741Z,26.60
2022-11-25T22:32:23.460Z,29.20
2022-11-25T22:34:51.653Z,26.50
2022-11-25T22:37:24.937Z,31.40
2022-11-25T22:39:53.095Z,33.70
2022-11-25T22:42:31.348Z,32.30
2022-11-25T22:45:02.648Z,32.50
2022-11-25T22:47:44.455Z,38.10
2022-11-25T22:50:23.426Z,37.50
2022-11-25T22:52:53.605Z,33.60
2022-11-25T22:55:27.456Z,31.80
2022-11-25T22:57:58.523Z,29.90
2022-11-25T23:00:32.003Z,27.70
2022-11-25T23:03:02.943Z,27.90
2022-11-25T23:05:34.240Z,26.10
2022-11-25T23:08:17.282Z,26.90
2022-11-25T23:10:46.801Z,26.10
2022-11-25T23:13:17.262Z,23.50
2022-11-25T23:15:49.645Z,23.80
2022-11-25T23:18:43.178Z,26.10
2022-11-25T23:21:20.267Z,25.80
2022-11-25T23:23:48.638Z,26.20
2022-11-25T23:26:16.784Z,30.20
2022-11-25T23:28:45.022Z,26.10
2022-11-25T23:31:15.052Z,24.50
2022-11-25T23:33:49.218Z,24.20
2022-11-25T23:36:28.658Z,25.50
2022-11-25T23:38:59.210Z,26.40
2022-11-25T23:41:30.306Z,26.20
2022-11-25T23:44:06.178Z,28.50
2022-11-25T23:46:37.064Z,24.60
2022-11-25T23:49:12.620Z,23.30
2022-11-25T23:51:40.891Z,22.80
2022-11-25T23:54:12.757Z,27.20
2022-11-25T23:56:40.933Z,21.90
2022-11-25T23:59:16.772Z,21.20
